createdAt,value
2016-08-13T00:00:13.039Z,4
2016-08-13T00:01:13.009Z,4
2016-08-13T00:02:12.975Z,4
2016-08-13T00:03:12.950Z,4
2016-08-13T00:04:11.517Z,4
2016-08-13T00:05:12.179Z,4
2016-08-13T00:06:12.149Z,4
2016-08-13T00:07:12.122Z,4
2016-08-13T00:08:12.780Z,4
2016-08-13T00:09:12.743Z,4
2016-08-13T00:10:12.714Z,4
2016-08-13T00:11:11.979Z,0
2016-08-13T00:12:12.664Z,0
2016-08-13T00:13:11.923Z,0
2016-08-13T00:14:12.584Z,0
2016-08-13T00:15:11.853Z,0
2016-08-13T00:16:12.524Z,0
2016-08-13T00:17:12.504Z,0
2016-08-13T00:18:12.462Z,0
2016-08-13T00:19:12.433Z,0
2016-08-13T00:20:12.395Z,0
2016-08-13T00:21:12.377Z,0
2016-08-13T00:22:12.325Z,0
2016-08-13T00:23:12.292Z,0
2016-08-13T00:24:10.864Z,0
2016-08-13T00:25:12.232Z,0
2016-08-13T00:26:12.193Z,0
2016-08-13T00:27:11.460Z,0
2016-08-13T00:28:11.429Z,0
2016-08-13T00:29:11.395Z,0
2016-08-13T00:30:10.675Z,0
2016-08-13T00:31:11.337Z,0
2016-08-13T00:32:11.999Z,0
2016-08-13T00:33:11.279Z,0
2016-08-13T00:34:11.240Z,0
2016-08-13T00:35:11.894Z,0
2016-08-13T00:36:11.164Z,0
2016-08-13T00:37:10.443Z,0
2016-08-13T00:38:11.810Z,0
2016-08-13T00:39:11.771Z,0
2016-08-13T00:40:11.733Z,0
2016-08-13T00:41:11.012Z,0
2016-08-13T00:42:11.676Z,0
2016-08-13T00:43:11.639Z,0
2016-08-13T00:44:11.605Z,0
2016-08-13T00:45:10.870Z,0
2016-08-13T00:46:10.841Z,0
2016-08-13T00:47:10.110Z,0
2016-08-13T00:48:11.470Z,0
2016-08-13T00:49:10.041Z,0
2016-08-13T00:50:11.411Z,0
2016-08-13T00:51:11.372Z,0
2016-08-13T00:52:11.340Z,0
2016-08-13T00:53:11.312Z,0
2016-08-13T00:54:10.577Z,0
2016-08-13T00:55:11.238Z,0
2016-08-13T00:56:10.517Z,0
2016-08-13T00:57:09.784Z,0
2016-08-13T00:58:11.154Z,0
2016-08-13T00:59:10.418Z,0
2016-08-13T01:00:10.379Z,0
2016-08-13T01:01:10.341Z,0
2016-08-13T01:02:10.313Z,0
2016-08-13T01:03:10.977Z,0
2016-08-13T01:04:10.943Z,0
2016-08-13T01:05:10.925Z,0
2016-08-13T01:06:10.888Z,0
2016-08-13T01:07:10.143Z,0
2016-08-13T01:08:10.803Z,0
2016-08-13T01:09:10.796Z,0
2016-08-13T01:10:10.050Z,0
2016-08-13T01:11:10.011Z,0
2016-08-13T01:12:09.983Z,0
2016-08-13T01:13:10.639Z,0
2016-08-13T01:14:10.620Z,0
2016-08-13T01:15:09.895Z,0
2016-08-13T01:16:10.557Z,0
2016-08-13T01:17:10.521Z,0
2016-08-13T01:18:10.478Z,0
2016-08-13T01:19:10.440Z,0
2016-08-13T01:20:10.410Z,0
2016-08-13T01:21:09.685Z,0
2016-08-13T01:22:10.345Z,0
2016-08-13T01:23:09.608Z,0
2016-08-13T01:24:09.576Z,0
2016-08-13T01:25:10.238Z,0
2016-08-13T01:26:10.231Z,0
2016-08-13T01:27:10.173Z,0
2016-08-13T01:28:09.441Z,0
2016-08-13T01:29:10.103Z,0
2016-08-13T01:30:09.393Z,0
2016-08-13T01:31:10.056Z,0
2016-08-13T01:32:10.010Z,0
2016-08-13T01:33:08.578Z,0
2016-08-13T01:34:09.936Z,0
2016-08-13T01:35:09.904Z,0
2016-08-13T01:36:09.170Z,0
2016-08-13T01:37:09.160Z,0
2016-08-13T01:38:08.411Z,0
2016-08-13T01:39:09.769Z,0
2016-08-13T01:40:09.036Z,0
2016-08-13T01:41:09.696Z,0
2016-08-13T01:42:08.979Z,0
2016-08-13T01:43:09.628Z,0
2016-08-13T01:44:09.603Z,0
2016-08-13T01:45:09.567Z,0
2016-08-13T01:46:09.531Z,0
2016-08-13T01:47:09.518Z,0
2016-08-13T01:48:09.463Z,0
2016-08-13T01:49:08.035Z,0
2016-08-13T01:50:09.396Z,0
2016-08-13T01:51:08.678Z,0
2016-08-13T01:52:08.640Z,0
2016-08-13T01:53:07.898Z,0
2016-08-13T01:54:08.570Z,0
2016-08-13T01:55:08.531Z,0
2016-08-13T01:56:09.186Z,0
2016-08-13T01:57:09.156Z,0
2016-08-13T01:58:08.437Z,0
2016-08-13T01:59:09.080Z,0
2016-08-13T02:00:08.352Z,0
2016-08-13T02:01:09.029Z,0
2016-08-13T02:02:08.989Z,0
2016-08-13T02:03:08.960Z,0
2016-08-13T02:04:08.229Z,0
2016-08-13T02:05:07.495Z,0
2016-08-13T02:06:08.855Z,0
2016-08-13T02:07:08.812Z,0
2016-08-13T02:08:08.790Z,0
2016-08-13T02:09:08.754Z,0
2016-08-13T02:10:08.716Z,0
2016-08-13T02:11:07.981Z,0
2016-08-13T02:12:07.953Z,0
2016-08-13T02:13:08.615Z,0
2016-08-13T02:14:07.879Z,0
2016-08-13T02:15:08.541Z,0
2016-08-13T02:16:08.508Z,0
2016-08-13T02:17:07.781Z,0
2016-08-13T02:18:08.445Z,0
2016-08-13T02:19:08.404Z,0
2016-08-13T02:20:07.679Z,0
2016-08-13T02:21:08.346Z,0
2016-08-13T02:22:08.312Z,0
2016-08-13T02:23:08.267Z,0
2016-08-13T02:24:08.236Z,0
2016-08-13T02:25:07.504Z,0
2016-08-13T02:26:07.472Z,0
2016-08-13T02:27:08.130Z,0
2016-08-13T02:28:07.404Z,0
2016-08-13T02:29:06.666Z,0
2016-08-13T02:30:08.029Z,0
2016-08-13T02:31:07.990Z,0
2016-08-13T02:32:07.959Z,0
2016-08-13T02:33:07.923Z,0
2016-08-13T02:34:07.887Z,0
2016-08-13T02:35:07.851Z,0
2016-08-13T02:36:07.828Z,0
2016-08-13T02:37:07.095Z,0
2016-08-13T02:38:07.057Z,0
2016-08-13T02:39:07.026Z,0
2016-08-13T02:40:06.986Z,0
2016-08-13T02:41:07.654Z,0
2016-08-13T02:42:06.925Z,0
2016-08-13T02:43:07.589Z,0
2016-08-13T02:44:06.847Z,0
2016-08-13T02:45:07.516Z,0
2016-08-13T02:46:07.488Z,0
2016-08-13T02:47:07.439Z,0
2016-08-13T02:48:07.405Z,0
2016-08-13T02:49:06.671Z,0
2016-08-13T02:50:07.340Z,0
2016-08-13T02:51:07.307Z,0
2016-08-13T02:52:07.278Z,0
2016-08-13T02:53:05.167Z,0
2016-08-13T02:54:07.195Z,0
2016-08-13T02:55:07.164Z,0
2016-08-13T02:56:06.442Z,0
2016-08-13T02:57:07.096Z,0
2016-08-13T02:58:07.066Z,0
2016-08-13T02:59:06.335Z,0
2016-08-13T03:00:06.296Z,0
2016-08-13T03:01:06.972Z,0
2016-08-13T03:02:05.529Z,0
2016-08-13T03:03:06.190Z,0
2016-08-13T03:04:06.854Z,0
2016-08-13T03:05:06.135Z,0
2016-08-13T03:06:06.787Z,0
2016-08-13T03:07:06.055Z,0
2016-08-13T03:08:06.718Z,0
2016-08-13T03:09:06.678Z,0
2016-08-13T03:10:06.652Z,0
2016-08-13T03:11:05.911Z,0
2016-08-13T03:12:05.900Z,0
2016-08-13T03:13:05.847Z,0
2016-08-13T03:14:05.816Z,0
2016-08-13T03:15:06.472Z,0
2016-08-13T03:16:05.748Z,0
2016-08-13T03:17:05.707Z,0
2016-08-13T03:18:06.376Z,0
2016-08-13T03:19:06.332Z,0
2016-08-13T03:20:05.603Z,0
2016-08-13T03:21:05.576Z,0
2016-08-13T03:22:06.240Z,0
2016-08-13T03:23:06.190Z,0
2016-08-13T03:24:04.784Z,0
2016-08-13T03:25:05.440Z,0
2016-08-13T03:26:05.398Z,0
2016-08-13T03:27:06.055Z,0
2016-08-13T03:28:06.021Z,0
2016-08-13T03:29:05.288Z,0
2016-08-13T03:30:05.952Z,0
2016-08-13T03:31:05.218Z,0
2016-08-13T03:32:03.796Z,0
2016-08-13T03:33:05.853Z,0
2016-08-13T03:34:05.817Z,0
2016-08-13T03:35:05.082Z,0
2016-08-13T03:36:05.747Z,0
2016-08-13T03:37:05.707Z,0
2016-08-13T03:38:05.690Z,4
2016-08-13T03:39:05.641Z,4
2016-08-13T03:40:05.605Z,0
2016-08-13T03:41:05.575Z,4
2016-08-13T03:42:05.534Z,4
2016-08-13T03:43:04.804Z,4
2016-08-13T03:44:05.466Z,4
2016-08-13T03:45:05.434Z,4
2016-08-13T03:46:05.389Z,4
2016-08-13T03:47:05.370Z,4
2016-08-13T03:48:05.328Z,8
2016-08-13T03:49:04.600Z,12
2016-08-13T03:50:04.561Z,12
2016-08-13T03:51:05.226Z,16
2016-08-13T03:52:03.798Z,16
2016-08-13T03:53:05.160Z,24
2016-08-13T03:54:05.119Z,28
2016-08-13T03:55:05.086Z,32
2016-08-13T03:56:05.048Z,36
2016-08-13T03:57:05.016Z,44
2016-08-13T03:58:04.978Z,52
2016-08-13T03:59:04.941Z,56
2016-08-13T04:00:04.219Z,64
2016-08-13T04:01:03.499Z,76
2016-08-13T04:02:04.150Z,88
2016-08-13T04:03:04.109Z,100
2016-08-13T04:04:03.394Z,112
2016-08-13T04:05:04.768Z,128
2016-08-13T04:06:04.703Z,144
2016-08-13T04:07:04.671Z,164
2016-08-13T04:08:03.242Z,184
2016-08-13T04:09:04.606Z,204
2016-08-13T04:10:04.595Z,228
2016-08-13T04:11:04.538Z,252
2016-08-13T04:12:03.799Z,280
2016-08-13T04:13:03.774Z,304
2016-08-13T04:14:04.428Z,336
2016-08-13T04:15:03.012Z,368
2016-08-13T04:16:04.364Z,404
2016-08-13T04:17:04.316Z,436
2016-08-13T04:18:04.294Z,472
2016-08-13T04:19:04.274Z,512
2016-08-13T04:20:04.221Z,552
2016-08-13T04:21:02.796Z,596
2016-08-13T04:22:03.458Z,640
2016-08-13T04:23:04.119Z,684
2016-08-13T04:24:04.084Z,728
2016-08-13T04:25:04.071Z,780
2016-08-13T04:26:02.625Z,824
2016-08-13T04:27:03.980Z,876
2016-08-13T04:28:02.570Z,924
2016-08-13T04:29:02.520Z,972
2016-08-13T04:30:03.876Z,1024
2016-08-13T04:31:03.891Z,1076
2016-08-13T04:32:03.121Z,1128
2016-08-13T04:33:02.381Z,1180
2016-08-13T04:34:03.040Z,1232
2016-08-13T04:35:03.702Z,1284
2016-08-13T04:36:03.673Z,1340
2016-08-13T04:37:03.654Z,1392
2016-08-13T04:38:03.599Z,1444
2016-08-13T04:39:02.876Z,1496
2016-08-13T04:40:02.841Z,1548
2016-08-13T04:41:03.507Z,1604
2016-08-13T04:42:02.771Z,1656
2016-08-13T04:43:03.436Z,1708
2016-08-13T04:44:02.003Z,1764
2016-08-13T04:45:03.359Z,1844
2016-08-13T04:46:02.645Z,1928
2016-08-13T04:47:03.294Z,2012
2016-08-13T04:48:03.266Z,2060
2016-08-13T04:49:03.226Z,2120
2016-08-13T04:50:03.189Z,2212
2016-08-13T04:51:02.466Z,2352
2016-08-13T04:52:02.437Z,2396
2016-08-13T04:53:03.088Z,2304
2016-08-13T04:54:02.356Z,2312
2016-08-13T04:55:03.018Z,2412
2016-08-13T04:56:02.288Z,2524
2016-08-13T04:57:01.561Z,2660
2016-08-13T04:58:02.915Z,2796
2016-08-13T04:59:02.896Z,2908
2016-08-13T05:00:01.457Z,3092
2016-08-13T05:01:01.419Z,3296
2016-08-13T05:02:02.777Z,3556
2016-08-13T05:03:02.748Z,3676
2016-08-13T05:04:02.714Z,3912
2016-08-13T05:05:02.677Z,4748
2016-08-13T05:06:02.642Z,6776
2016-08-13T05:07:02.610Z,15264
2016-08-13T05:08:01.174Z,24288
2016-08-13T05:09:02.548Z,26304
2016-08-13T05:10:02.509Z,27040
2016-08-13T05:11:01.774Z,28512
2016-08-13T05:12:02.437Z,30080
2016-08-13T05:13:01.014Z,29760
2016-08-13T05:14:01.674Z,30592
2016-08-13T05:15:02.331Z,30784
2016-08-13T05:16:01.614Z,30816
2016-08-13T05:17:02.270Z,32288
2016-08-13T05:18:02.251Z,33664
2016-08-13T05:19:00.814Z,34080
2016-08-13T05:20:01.473Z,32992
2016-08-13T05:21:01.447Z,34528
2016-08-13T05:22:01.420Z,37632
2016-08-13T05:23:01.379Z,39360
2016-08-13T05:24:00.662Z,38080
2016-08-13T05:25:02.020Z,36864
2016-08-13T05:26:02.002Z,38080
2016-08-13T05:27:01.972Z,38816
2016-08-13T05:28:01.924Z,39424
2016-08-13T05:29:01.908Z,40096
2016-08-13T05:30:01.174Z,41024
2016-08-13T05:31:01.864Z,42112
2016-08-13T05:32:01.810Z,42816
2016-08-13T05:33:01.783Z,41824
2016-08-13T05:34:01.064Z,42880
2016-08-13T05:35:01.027Z,44768
2016-08-13T05:36:01.698Z,46368
2016-08-13T05:37:00.987Z,44160
2016-08-13T05:38:00.952Z,42624
2016-08-13T05:39:01.619Z,42368
2016-08-13T05:40:01.592Z,44320
2016-08-13T05:41:01.559Z,43136
2016-08-13T05:42:01.538Z,40544
2016-08-13T05:43:01.516Z,39264
2016-08-13T05:44:01.487Z,42304
2016-08-13T05:45:01.462Z,45856
2016-08-13T05:46:01.484Z,48832
2016-08-13T05:47:00.704Z,47936
2016-08-13T05:48:01.376Z,47840
2016-08-13T05:49:00.670Z,48512
2016-08-13T05:50:01.327Z,48800
2016-08-13T05:51:01.301Z,49280
2016-08-13T05:52:01.276Z,49216
2016-08-13T05:52:59.858Z,48416
2016-08-13T05:54:01.234Z,49664
2016-08-13T05:55:00.516Z,50592
2016-08-13T05:56:00.484Z,51136
2016-08-13T05:57:00.476Z,50944
2016-08-13T05:57:59.736Z,50112
2016-08-13T05:59:00.404Z,50176
2016-08-13T06:00:01.082Z,51200
2016-08-13T06:01:01.060Z,50976
2016-08-13T06:01:59.647Z,50720
2016-08-13T06:03:01.021Z,51296
2016-08-13T06:04:00.316Z,52736
2016-08-13T06:05:00.971Z,51904
2016-08-13T06:06:00.254Z,53024
2016-08-13T06:07:00.220Z,54112
2016-08-13T06:08:00.203Z,54592
2016-08-13T06:09:00.888Z,54720
2016-08-13T06:10:00.857Z,54560
2016-08-13T06:11:00.131Z,55168
2016-08-13T06:12:00.804Z,56352
2016-08-13T06:13:00.089Z,55584
2016-08-13T06:13:59.376Z,57920
2016-08-13T06:15:00.050Z,58944
2016-08-13T06:16:00.719Z,59552
2016-08-13T06:17:00.694Z,58592
2016-08-13T06:18:00.675Z,57024
2016-08-13T06:19:00.654Z,58912
2016-08-13T06:20:00.644Z,59040
2016-08-13T06:20:59.912Z,58016
2016-08-13T06:21:59.203Z,59136
2016-08-13T06:23:00.566Z,61920
2016-08-13T06:24:00.545Z,64000
2016-08-13T06:24:59.830Z,63808
2016-08-13T06:26:00.498Z,65120
2016-08-13T06:26:59.785Z,65312
2016-08-13T06:28:00.460Z,62528
2016-08-13T06:29:00.441Z,62464
2016-08-13T06:30:00.425Z,64960
2016-08-13T06:31:00.623Z,63040
2016-08-13T06:32:00.387Z,62976
2016-08-13T06:33:00.358Z,66784
2016-08-13T06:33:59.652Z,68736
2016-08-13T06:35:00.320Z,69632
2016-08-13T06:36:00.305Z,66848
2016-08-13T06:36:59.582Z,67200
2016-08-13T06:38:00.254Z,69792
2016-08-13T06:39:00.242Z,70976
2016-08-13T06:40:00.213Z,73056
2016-08-13T06:41:00.189Z,74464
2016-08-13T06:42:00.168Z,73824
2016-08-13T06:43:00.152Z,74560
2016-08-13T06:44:00.152Z,76544
2016-08-13T06:44:58.708Z,72928
2016-08-13T06:45:59.389Z,72960
2016-08-13T06:47:00.056Z,78976
2016-08-13T06:48:00.037Z,81536
2016-08-13T06:49:00.019Z,80000
2016-08-13T06:49:58.599Z,80224
2016-08-13T06:50:59.976Z,80512
2016-08-13T06:51:59.259Z,79168
2016-08-13T06:52:59.934Z,78560
2016-08-13T06:53:59.208Z,79232
2016-08-13T06:54:59.884Z,82624
2016-08-13T06:55:59.858Z,85984
2016-08-13T06:56:59.848Z,81312
2016-08-13T06:57:59.834Z,78848
2016-08-13T06:58:59.102Z,80608
2016-08-13T06:59:59.770Z,82176
2016-08-13T07:00:59.752Z,83040
2016-08-13T07:01:59.730Z,82944
2016-08-13T07:02:59.705Z,84864
2016-08-13T07:03:58.292Z,84032
2016-08-13T07:04:59.666Z,83008
2016-08-13T07:05:59.649Z,83200
2016-08-13T07:06:59.626Z,80672
2016-08-13T07:07:58.901Z,87648
2016-08-13T07:08:58.181Z,93152
2016-08-13T07:09:59.556Z,90688
2016-08-13T07:10:58.138Z,90976
2016-08-13T07:11:58.826Z,87200
2016-08-13T07:12:59.497Z,86112
2016-08-13T07:13:58.772Z,88480
2016-08-13T07:14:58.758Z,92256
2016-08-13T07:15:58.031Z,91232
2016-08-13T07:16:59.416Z,89440
2016-08-13T07:17:57.994Z,89824
2016-08-13T07:18:59.383Z,90720
2016-08-13T07:19:58.645Z,91072
2016-08-13T07:20:59.322Z,94976
2016-08-13T07:21:59.302Z,96384
2016-08-13T07:22:59.285Z,94592
2016-08-13T07:23:59.258Z,92608
2016-08-13T07:24:58.540Z,92128
2016-08-13T07:25:59.218Z,91008
2016-08-13T07:26:58.508Z,89440
2016-08-13T07:27:58.490Z,93184
2016-08-13T07:28:59.155Z,93600
2016-08-13T07:29:59.129Z,89440
2016-08-13T07:30:58.416Z,90976
2016-08-13T07:31:59.106Z,92320
2016-08-13T07:32:59.083Z,99680
2016-08-13T07:33:59.055Z,100352
2016-08-13T07:34:58.340Z,95264
2016-08-13T07:35:58.322Z,98112
2016-08-13T07:36:58.998Z,102912
2016-08-13T07:37:58.281Z,101184
2016-08-13T07:38:57.563Z,96704
2016-08-13T07:39:57.546Z,95680
2016-08-13T07:40:57.522Z,98432
2016-08-13T07:41:58.898Z,101504
2016-08-13T07:42:58.190Z,98112
2016-08-13T07:43:58.173Z,92192
2016-08-13T07:44:58.148Z,92896
2016-08-13T07:45:58.132Z,94272
2016-08-13T07:46:57.415Z,96640
2016-08-13T07:47:58.785Z,100000
2016-08-13T07:48:58.076Z,96320
2016-08-13T07:49:57.370Z,91680
2016-08-13T07:50:58.736Z,94016
2016-08-13T07:51:58.712Z,100640
2016-08-13T07:52:57.993Z,101408
2016-08-13T07:53:58.000Z,100864
2016-08-13T07:54:58.658Z,98528
2016-08-13T07:55:57.947Z,102752
2016-08-13T07:56:58.631Z,102624
2016-08-13T07:57:58.611Z,104160
2016-08-13T07:58:58.600Z,111968
2016-08-13T07:59:57.874Z,103328
2016-08-13T08:00:58.552Z,96736
2016-08-13T08:01:57.839Z,108512
2016-08-13T08:02:57.829Z,112032
2016-08-13T08:03:57.808Z,103136
2016-08-13T08:04:58.488Z,100000
2016-08-13T08:05:57.071Z,104640
2016-08-13T08:06:58.447Z,108736
2016-08-13T08:07:58.434Z,110144
2016-08-13T08:08:57.718Z,108320
2016-08-13T08:09:58.419Z,108096
2016-08-13T08:10:58.386Z,110176
2016-08-13T08:11:58.370Z,109568
2016-08-13T08:12:58.359Z,105984
2016-08-13T08:13:57.638Z,102112
2016-08-13T08:14:57.616Z,107104
2016-08-13T08:15:58.300Z,113248
2016-08-13T08:16:57.596Z,112384
2016-08-13T08:17:57.585Z,108384
2016-08-13T08:18:57.551Z,110112
2016-08-13T08:19:57.547Z,109184
2016-08-13T08:20:58.229Z,109024
2016-08-13T08:21:57.522Z,120032
2016-08-13T08:22:58.193Z,127296
2016-08-13T08:23:56.797Z,134752
2016-08-13T08:24:58.165Z,140928
2016-08-13T08:25:58.143Z,139168
2016-08-13T08:26:58.133Z,144352
2016-08-13T08:27:58.117Z,151904
2016-08-13T08:28:57.401Z,128480
2016-08-13T08:29:58.086Z,69408
2016-08-13T08:30:58.063Z,29632
2016-08-13T08:31:57.369Z,25184
2016-08-13T08:32:57.342Z,24384
2016-08-13T08:33:57.325Z,24736
2016-08-13T08:34:58.012Z,25536
2016-08-13T08:35:56.603Z,26304
2016-08-13T08:36:57.980Z,26880
2016-08-13T08:37:56.587Z,27232
2016-08-13T08:38:57.255Z,27328
2016-08-13T08:39:57.263Z,27232
2016-08-13T08:40:57.926Z,27168
2016-08-13T08:41:57.218Z,27200
2016-08-13T08:42:57.900Z,27264
2016-08-13T08:43:57.895Z,27232
2016-08-13T08:44:57.176Z,27392
2016-08-13T08:45:57.155Z,27808
2016-08-13T08:46:57.149Z,28192
2016-08-13T08:47:57.133Z,28608
2016-08-13T08:48:57.823Z,29120
2016-08-13T08:49:57.807Z,29792
2016-08-13T08:50:57.847Z,30752
2016-08-13T08:51:57.084Z,33472
2016-08-13T08:52:57.069Z,55584
2016-08-13T08:53:57.755Z,104256
2016-08-13T08:54:57.736Z,133120
2016-08-13T08:55:56.339Z,128416
2016-08-13T08:56:57.718Z,118816
2016-08-13T08:57:56.999Z,122752
2016-08-13T08:58:57.680Z,126816
2016-08-13T08:59:57.673Z,125120
2016-08-13T09:00:56.264Z,124032
2016-08-13T09:01:56.960Z,121536
2016-08-13T09:02:57.640Z,116832
2016-08-13T09:03:56.933Z,123616
2016-08-13T09:04:56.911Z,144256
2016-08-13T09:05:56.902Z,176384
2016-08-13T09:06:57.586Z,191872
2016-08-13T09:07:56.182Z,175424
2016-08-13T09:08:58.728Z,115328
2016-08-13T09:09:57.809Z,68672
2016-08-13T09:10:56.838Z,52736
2016-08-13T09:11:57.528Z,49888
2016-08-13T09:12:56.828Z,49728
2016-08-13T09:13:56.799Z,51200
2016-08-13T09:14:57.485Z,52192
2016-08-13T09:15:56.779Z,51744
2016-08-13T09:16:57.472Z,51776
2016-08-13T09:17:58.015Z,54944
2016-08-13T09:18:56.742Z,59840
2016-08-13T09:19:56.720Z,65024
2016-08-13T09:20:57.413Z,65664
2016-08-13T09:21:57.397Z,66848
2016-08-13T09:22:57.383Z,70016
2016-08-13T09:23:56.693Z,71264
2016-08-13T09:24:56.662Z,76928
2016-08-13T09:25:57.360Z,81728
2016-08-13T09:26:56.635Z,80320
2016-08-13T09:27:57.321Z,88032
2016-08-13T09:28:56.615Z,93408
2016-08-13T09:29:56.602Z,94656
2016-08-13T09:30:57.286Z,97600
2016-08-13T09:31:57.277Z,96768
2016-08-13T09:32:57.265Z,91648
2016-08-13T09:33:56.555Z,99328
2016-08-13T09:34:55.839Z,108928
2016-08-13T09:35:56.530Z,106976
2016-08-13T09:36:57.214Z,106016
2016-08-13T09:37:57.200Z,108896
2016-08-13T09:38:56.498Z,107968
2016-08-13T09:39:56.487Z,107392
2016-08-13T09:40:57.168Z,113824
2016-08-13T09:41:55.768Z,111552
2016-08-13T09:42:55.752Z,110624
2016-08-13T09:43:56.431Z,114592
2016-08-13T09:44:55.723Z,112800
2016-08-13T09:45:56.407Z,113024
2016-08-13T09:46:56.389Z,112480
2016-08-13T09:47:57.106Z,108960
2016-08-13T09:48:57.071Z,117440
2016-08-13T09:49:57.073Z,116064
2016-08-13T09:50:56.353Z,118880
2016-08-13T09:51:57.041Z,120512
2016-08-13T09:52:57.021Z,117888
2016-08-13T09:53:57.012Z,118368
2016-08-13T09:54:56.325Z,110528
2016-08-13T09:55:56.988Z,107872
2016-08-13T09:56:56.975Z,105984
2016-08-13T09:57:56.265Z,107680
2016-08-13T09:58:56.253Z,106240
2016-08-13T09:59:56.245Z,106144
2016-08-13T10:00:56.230Z,107200
2016-08-13T10:01:56.914Z,106784
2016-08-13T10:02:56.216Z,108576
2016-08-13T10:03:56.212Z,113184
2016-08-13T10:04:56.188Z,115360
2016-08-13T10:05:56.891Z,115136
2016-08-13T10:06:56.866Z,119776
2016-08-13T10:07:56.158Z,119232
2016-08-13T10:08:56.139Z,122880
2016-08-13T10:09:56.138Z,124000
2016-08-13T10:10:55.418Z,119040
2016-08-13T10:11:56.824Z,114272
2016-08-13T10:12:55.406Z,110560
2016-08-13T10:13:56.782Z,114016
2016-08-13T10:14:56.076Z,118016
2016-08-13T10:15:56.762Z,116800
2016-08-13T10:16:56.052Z,113760
2016-08-13T10:17:55.345Z,113568
2016-08-13T10:18:56.742Z,118592
2016-08-13T10:19:55.322Z,115712
2016-08-13T10:20:56.712Z,106720
2016-08-13T10:21:56.691Z,105888
2016-08-13T10:22:56.689Z,108704
2016-08-13T10:23:56.673Z,113088
2016-08-13T10:24:55.974Z,114688
2016-08-13T10:25:56.653Z,114464
2016-08-13T10:26:55.943Z,110944
2016-08-13T10:27:55.230Z,114080
2016-08-13T10:28:55.926Z,110848
2016-08-13T10:29:55.918Z,105280
2016-08-13T10:30:55.897Z,104128
2016-08-13T10:31:55.897Z,105664
2016-08-13T10:32:55.879Z,111872
2016-08-13T10:33:55.869Z,116096
2016-08-13T10:34:55.855Z,119168
2016-08-13T10:35:56.548Z,117984
2016-08-13T10:36:56.528Z,115616
2016-08-13T10:37:56.515Z,108224
2016-08-13T10:38:56.499Z,107456
2016-08-13T10:39:55.807Z,109088
2016-08-13T10:40:56.480Z,107520
2016-08-13T10:41:56.477Z,69120
2016-08-13T10:42:56.481Z,34272
2016-08-13T10:43:56.446Z,31840
2016-08-13T10:44:56.431Z,30688
2016-08-13T10:45:55.716Z,30656
2016-08-13T10:46:55.027Z,31168
2016-08-13T10:47:56.406Z,31392
2016-08-13T10:48:56.378Z,35968
2016-08-13T10:49:55.669Z,43392
2016-08-13T10:50:56.360Z,47136
2016-08-13T10:51:56.339Z,47616
2016-08-13T10:52:56.334Z,48000
2016-08-13T10:53:54.918Z,47648
2016-08-13T10:54:56.303Z,48480
2016-08-13T10:55:55.589Z,49600
2016-08-13T10:56:55.575Z,47808
2016-08-13T10:57:56.256Z,40544
2016-08-13T10:58:56.246Z,38624
2016-08-13T10:59:56.226Z,37952
2016-08-13T11:00:55.520Z,26368
2016-08-13T11:01:56.198Z,18816
2016-08-13T11:02:54.801Z,20064
2016-08-13T11:03:55.472Z,48064
2016-08-13T11:04:55.507Z,89920
2016-08-13T11:05:56.137Z,92608
2016-08-13T11:06:56.131Z,96192
2016-08-13T11:07:55.415Z,98048
2016-08-13T11:08:54.699Z,94304
2016-08-13T11:09:55.390Z,92832
2016-08-13T11:10:56.073Z,94816
2016-08-13T11:11:56.061Z,96192
2016-08-13T11:12:56.033Z,97600
2016-08-13T11:13:56.886Z,98048
2016-08-13T11:14:54.606Z,94944
2016-08-13T11:15:55.294Z,94944
2016-08-13T11:16:55.268Z,88288
2016-08-13T11:17:55.946Z,94592
2016-08-13T11:18:55.930Z,82016
2016-08-13T11:19:55.220Z,32928
2016-08-13T11:20:55.896Z,14468
2016-08-13T11:21:55.523Z,13364
2016-08-13T11:22:55.163Z,12768
2016-08-13T11:23:55.840Z,12296
2016-08-13T11:24:55.124Z,11912
2016-08-13T11:25:55.118Z,11536
2016-08-13T11:26:55.790Z,11204
2016-08-13T11:27:55.080Z,10920
2016-08-13T11:28:55.755Z,10596
2016-08-13T11:29:55.031Z,10316
2016-08-13T11:30:55.013Z,10016
2016-08-13T11:31:55.699Z,9592
2016-08-13T11:32:55.671Z,8996
2016-08-13T11:33:54.954Z,8236
2016-08-13T11:34:54.239Z,7400
2016-08-13T11:35:54.912Z,6544
2016-08-13T11:36:55.584Z,5776
2016-08-13T11:37:54.867Z,5232
2016-08-13T11:38:54.148Z,4952
2016-08-13T11:39:55.519Z,4844
2016-08-13T11:40:55.501Z,4804
2016-08-13T11:41:55.483Z,4772
2016-08-13T11:42:54.755Z,4752
2016-08-13T11:43:54.738Z,4728
2016-08-13T11:44:55.417Z,4708
2016-08-13T11:45:53.993Z,4696
2016-08-13T11:46:54.666Z,4680
2016-08-13T11:47:55.336Z,4652
2016-08-13T11:48:55.317Z,4636
2016-08-13T11:49:54.592Z,4648
2016-08-13T11:50:55.281Z,4620
2016-08-13T11:51:54.545Z,4608
2016-08-13T11:52:55.220Z,4584
2016-08-13T11:53:54.497Z,4576
2016-08-13T11:54:54.494Z,4560
2016-08-13T11:55:54.457Z,4544
2016-08-13T11:56:54.431Z,4536
2016-08-13T11:57:54.414Z,4524
2016-08-13T11:58:55.097Z,4516
2016-08-13T11:59:55.056Z,4516
2016-08-13T12:00:54.336Z,4508
2016-08-13T12:01:54.304Z,4496
2016-08-13T12:02:54.298Z,4484
2016-08-13T12:03:54.257Z,4472
2016-08-13T12:04:54.954Z,4452
2016-08-13T12:05:54.228Z,4436
2016-08-13T12:07:52.775Z,4396
2016-08-13T12:08:54.128Z,4384
2016-08-13T12:09:54.103Z,4356
2016-08-13T12:10:54.079Z,4344
2016-08-13T12:11:54.054Z,4328
2016-08-13T12:12:54.031Z,4324
2016-08-13T12:13:54.006Z,4308
2016-08-13T12:14:54.673Z,4288
2016-08-13T12:15:53.961Z,4272
2016-08-13T12:16:54.633Z,4272
2016-08-13T12:17:54.600Z,4252
2016-08-13T12:18:54.576Z,4236
2016-08-13T12:19:54.554Z,4228
2016-08-13T12:20:54.523Z,4212
2016-08-13T12:21:54.492Z,4204
2016-08-13T12:22:53.780Z,4200
2016-08-13T12:23:54.450Z,4180
2016-08-13T12:24:53.027Z,4188
2016-08-13T12:25:53.696Z,4168
2016-08-13T12:27:54.353Z,4144
2016-08-13T12:28:54.330Z,4128
2016-08-13T12:29:53.590Z,4120
2016-08-13T12:30:53.571Z,4116
2016-08-13T12:31:54.235Z,4108
2016-08-13T12:32:53.513Z,4108
2016-08-13T12:33:52.788Z,4104
2016-08-13T12:34:54.164Z,4112
2016-08-13T12:35:52.744Z,4096
2016-08-13T12:36:54.127Z,4084
2016-08-13T12:37:53.388Z,4084
2016-08-13T12:38:54.068Z,4072
2016-08-13T12:39:52.634Z,4040
2016-08-13T12:40:54.006Z,4040
2016-08-13T12:41:53.985Z,4028
2016-08-13T12:42:53.963Z,4020
2016-08-13T12:43:53.928Z,4012
2016-08-13T12:44:53.206Z,4000
2016-08-13T12:45:53.890Z,3996
2016-08-13T12:46:53.848Z,4000
2016-08-13T12:47:53.126Z,3992
2016-08-13T12:48:53.799Z,3968
2016-08-13T12:49:53.073Z,3956
2016-08-13T12:50:53.056Z,3944
2016-08-13T12:51:53.716Z,3924
2016-08-13T12:52:52.993Z,3928
2016-08-13T12:53:53.664Z,3892
2016-08-13T12:54:52.946Z,3888
2016-08-13T12:55:53.615Z,3888
2016-08-13T12:56:53.585Z,3880
2016-08-13T12:57:53.569Z,3880
2016-08-13T12:58:53.536Z,3888
2016-08-13T12:59:53.524Z,3872
2016-08-13T13:00:52.787Z,3872
2016-08-13T13:01:53.458Z,3868
2016-08-13T13:02:52.733Z,3856
2016-08-13T13:03:53.402Z,3856
2016-08-13T13:04:53.378Z,3848
2016-08-13T13:05:52.658Z,3864
2016-08-13T13:06:53.331Z,3832
2016-08-13T13:07:52.606Z,3848
2016-08-13T13:08:52.575Z,3872
2016-08-13T13:09:53.258Z,3864
2016-08-13T13:10:52.527Z,3828
2016-08-13T13:11:53.196Z,3776
2016-08-13T13:12:53.172Z,3780
2016-08-13T13:13:52.446Z,3808
2016-08-13T13:14:53.122Z,3880
2016-08-13T13:15:51.697Z,3968
2016-08-13T13:16:53.073Z,4004
2016-08-13T13:17:53.052Z,4076
2016-08-13T13:18:52.319Z,4192
2016-08-13T13:19:52.998Z,4132
2016-08-13T13:20:52.266Z,4152
2016-08-13T13:21:52.238Z,4172
2016-08-13T13:22:52.229Z,4152
2016-08-13T13:23:52.187Z,4144
2016-08-13T13:24:52.183Z,4140
2016-08-13T13:25:52.830Z,4100
2016-08-13T13:26:52.803Z,4020
2016-08-13T13:27:52.774Z,3988